Whitten, Iowa
Current Conditions -  °F | °C
As of 10:53 PM on Saturday 22 Nov 2014 (Local Time) from KMIW Reporting Station
Broken Clouds Broken Clouds  
Wind Chill: 51°   Ceiling: 1500
Heat Index: 51°   Visibility: 10mi
Dew Point: 49°   Wind: 16mph
Humidity: 92%   Direction: 190°S
Pressure: 29.64"   Gusts: 23mph
Location:  42.26°N, 93.01°W
Report Text: KMIW 230453Z AUTO 19014G20KT 10SM BKN015 11/09 A2964 RMK AO2 SLP040 T01060094
Loading
Personal Weather Stations






























Interactive Weather Map New forecast layout! Learn more

10-Day Weather Forecast

Advertisements
Track Severe Weather on mobile